Terminal Aerodrome Forecast
Issued by NWS

Home | Current Version | Previous Version | Text Only | Print | Product List | Glossary Off
Versions: 1 2 3 4 5 6 7 8 9 10 11 12 13 14 15 16 17 18 19

632
FTUS43 KIWX 180532
TAFSBN
TAF
KSBN 180532Z 1806/1906 26010KT 6SM BR OVC006
     FM181000 25008KT 5SM BR OVC005
     FM181400 23010KT P6SM OVC008
     FM181800 22010KT P6SM BKN012
     FM182100 21008KT P6SM SCT015=

USA.gov is the U.S. government's official web portal to all federal, state and local government web resources and services.